createdAt,value
2022-10-04T00:00:26.306Z,3.40
2022-10-04T00:03:27.441Z,3.00
2022-10-04T00:06:02.130Z,4.20
2022-10-04T00:08:43.409Z,3.30
2022-10-04T00:11:24.533Z,2.90
2022-10-04T00:13:58.903Z,3.10
2022-10-04T00:16:33.052Z,3.30
2022-10-04T00:19:26.007Z,2.90
2022-10-04T00:25:21.681Z,3.00
2022-10-04T00:28:42.812Z,3.00
2022-10-04T00:31:21.384Z,2.50
2022-10-04T00:33:55.970Z,3.10
2022-10-04T00:36:49.985Z,3.30
2022-10-04T00:39:43.064Z,2.50
2022-10-04T00:42:41.097Z,2.60
2022-10-04T00:45:35.208Z,2.30
2022-10-04T00:48:37.083Z,2.30
2022-10-04T00:51:19.164Z,2.00
2022-10-04T00:54:10.181Z,2.00
2022-10-04T00:56:48.760Z,1.70
2022-10-04T00:59:34.950Z,1.70
2022-10-04T01:02:13.910Z,1.40
2022-10-04T01:04:51.061Z,1.80
2022-10-04T01:07:29.146Z,1.70
2022-10-04T01:10:05.715Z,2.00
2022-10-04T01:12:51.010Z,1.50
2022-10-04T01:15:31.959Z,1.60
2022-10-04T01:18:13.203Z,1.70
2022-10-04T01:20:56.129Z,1.30
2022-10-04T01:23:46.244Z,1.70
2022-10-04T01:26:41.027Z,1.40
2022-10-04T01:29:17.305Z,1.70
2022-10-04T01:31:51.489Z,1.40
2022-10-04T01:34:24.704Z,1.70
2022-10-04T01:36:59.243Z,1.60
2022-10-04T01:39:31.563Z,1.80
2022-10-04T01:42:09.692Z,2.10
2022-10-04T01:44:45.624Z,2.10
2022-10-04T01:47:25.091Z,2.40
2022-10-04T01:50:00.034Z,2.00
2022-10-04T01:52:37.306Z,2.30
2022-10-04T01:55:14.800Z,3.10
2022-10-04T01:57:52.819Z,2.60
2022-10-04T02:00:25.383Z,2.90
2022-10-04T02:03:02.164Z,3.20
2022-10-04T02:05:40.281Z,3.50
2022-10-04T02:08:17.117Z,3.80
2022-10-04T02:10:55.054Z,3.50
2022-10-04T02:13:30.579Z,3.80
2022-10-04T02:16:03.979Z,3.80
2022-10-04T02:18:38.255Z,3.00
2022-10-04T02:21:11.398Z,3.40
2022-10-04T02:23:44.403Z,3.50
2022-10-04T02:26:16.229Z,2.70
2022-10-04T02:28:49.979Z,3.40
2022-10-04T02:31:42.555Z,3.40
2022-10-04T02:34:15.312Z,2.80
2022-10-04T02:36:51.793Z,3.10
2022-10-04T02:39:30.449Z,3.10
2022-10-04T02:42:11.259Z,3.10
2022-10-04T02:44:47.274Z,2.90
2022-10-04T02:47:22.998Z,2.80
2022-10-04T02:49:59.524Z,2.50
2022-10-04T02:52:37.373Z,3.00
2022-10-04T02:55:18.100Z,2.30
2022-10-04T02:57:52.501Z,2.80
2022-10-04T03:00:28.062Z,2.90
2022-10-04T03:03:20.880Z,2.40
2022-10-04T03:06:03.588Z,3.00
2022-10-04T03:08:45.479Z,3.40
2022-10-04T03:11:19.197Z,3.00
2022-10-04T03:13:55.019Z,3.00
2022-10-04T03:16:27.531Z,2.80
2022-10-04T03:19:00.105Z,2.60
2022-10-04T03:21:35.155Z,3.20
2022-10-04T03:24:08.424Z,3.30
2022-10-04T03:26:43.475Z,2.90
2022-10-04T03:29:17.496Z,3.70
2022-10-04T03:31:52.662Z,2.80
2022-10-04T03:34:28.799Z,3.20
2022-10-04T03:37:02.177Z,3.20
2022-10-04T03:39:39.498Z,2.80
2022-10-04T03:42:16.707Z,3.20
2022-10-04T03:44:51.709Z,3.00
2022-10-04T03:47:27.016Z,3.00
2022-10-04T03:50:03.996Z,3.80
2022-10-04T03:52:38.284Z,3.10
2022-10-04T03:55:14.532Z,3.20
2022-10-04T03:57:47.154Z,3.40
2022-10-04T04:00:20.263Z,2.90
2022-10-04T04:02:58.520Z,2.40
2022-10-04T04:05:32.880Z,3.00
2022-10-04T04:08:14.758Z,3.00
2022-10-04T04:10:51.746Z,2.80
2022-10-04T04:13:28.924Z,2.50
2022-10-04T04:16:04.036Z,2.40
2022-10-04T04:18:39.286Z,2.70
2022-10-04T04:21:18.097Z,2.60
2022-10-04T04:23:52.535Z,4.00
2022-10-04T04:26:32.477Z,2.50
2022-10-04T04:29:12.225Z,2.80
2022-10-04T04:31:48.407Z,2.90
2022-10-04T04:34:24.951Z,3.60
2022-10-04T04:37:01.206Z,2.70
2022-10-04T04:39:41.165Z,3.40
2022-10-04T04:42:21.267Z,2.70
2022-10-04T04:44:56.853Z,2.90
2022-10-04T04:47:35.751Z,3.50
2022-10-04T04:50:13.432Z,2.90
2022-10-04T04:52:48.269Z,2.60
2022-10-04T04:55:23.892Z,2.90
2022-10-04T04:57:59.251Z,3.40
2022-10-04T05:00:35.393Z,3.20
2022-10-04T05:03:18.476Z,3.40
2022-10-04T05:05:51.900Z,3.30
2022-10-04T05:08:27.801Z,4.40
2022-10-04T05:11:08.139Z,4.30
2022-10-04T05:13:45.361Z,3.40
2022-10-04T05:16:24.669Z,3.40
2022-10-04T05:19:01.167Z,3.90
2022-10-04T05:21:34.823Z,3.70
2022-10-04T05:24:14.118Z,3.80
2022-10-04T05:26:50.767Z,3.70
2022-10-04T05:29:26.233Z,3.60
2022-10-04T05:32:09.262Z,3.60
2022-10-04T05:34:45.435Z,3.00
2022-10-04T05:37:35.647Z,3.20
2022-10-04T05:40:24.729Z,3.10
2022-10-04T05:42:58.446Z,3.20
2022-10-04T05:45:32.689Z,2.70
2022-10-04T05:48:10.119Z,2.70
2022-10-04T05:50:43.584Z,2.70
2022-10-04T05:53:28.385Z,3.20
2022-10-04T05:56:11.940Z,2.90
2022-10-04T05:58:55.824Z,3.00
2022-10-04T06:01:41.622Z,3.20
2022-10-04T06:04:28.402Z,3.20
2022-10-04T06:07:04.453Z,3.30
2022-10-04T06:09:52.574Z,4.30
2022-10-04T06:12:39.208Z,3.60
2022-10-04T06:15:36.657Z,3.90
2022-10-04T06:18:27.338Z,3.40
2022-10-04T06:21:22.893Z,3.40
2022-10-04T06:24:03.771Z,3.40
2022-10-04T06:26:43.742Z,2.80
2022-10-04T06:29:20.754Z,3.40
2022-10-04T06:32:19.844Z,3.10
2022-10-04T06:35:11.368Z,3.20
2022-10-04T06:38:23.675Z,3.00
2022-10-04T06:41:19.446Z,3.00
2022-10-04T06:44:09.100Z,2.50
2022-10-04T06:46:49.415Z,2.60
2022-10-04T06:49:40.275Z,2.70
2022-10-04T06:52:29.174Z,2.70
2022-10-04T06:55:20.405Z,2.80
2022-10-04T06:58:18.669Z,2.20
2022-10-04T07:00:57.883Z,2.50
2022-10-04T07:03:38.389Z,2.90
2022-10-04T07:06:11.867Z,3.00
2022-10-04T07:08:49.618Z,2.40
2022-10-04T07:11:27.074Z,2.60
2022-10-04T07:14:07.071Z,2.60
2022-10-04T07:16:45.361Z,2.20
2022-10-04T07:19:37.950Z,3.40
2022-10-04T07:22:18.816Z,3.40
2022-10-04T07:25:04.383Z,2.50
2022-10-04T07:27:47.028Z,2.40
2022-10-04T07:30:20.763Z,2.20
2022-10-04T07:32:53.142Z,2.30
2022-10-04T07:35:35.423Z,2.60
2022-10-04T07:38:17.212Z,2.40
2022-10-04T07:41:04.355Z,1.80
2022-10-04T07:43:42.138Z,2.30
2022-10-04T07:46:21.381Z,1.50
2022-10-04T07:48:54.423Z,2.40
2022-10-04T07:51:40.171Z,2.10
2022-10-04T07:54:19.861Z,1.70
2022-10-04T07:56:58.499Z,1.90
2022-10-04T07:59:41.611Z,1.80
2022-10-04T08:02:30.973Z,1.80
2022-10-04T08:05:18.777Z,1.80
2022-10-04T08:08:04.458Z,2.20
2022-10-04T08:10:47.863Z,1.40
2022-10-04T08:13:29.183Z,1.30
2022-10-04T08:16:16.604Z,1.80
2022-10-04T08:19:02.050Z,1.30
2022-10-04T08:21:42.262Z,1.60
2022-10-04T08:24:21.677Z,1.00
2022-10-04T08:27:09.273Z,1.00
2022-10-04T08:29:54.544Z,1.20
2022-10-04T08:33:01.859Z,1.00
2022-10-04T08:35:38.368Z,1.80
2022-10-04T08:38:24.917Z,1.20
2022-10-04T08:41:34.310Z,1.10
2022-10-04T08:44:53.887Z,1.60
2022-10-04T08:47:56.168Z,1.30
2022-10-04T08:51:06.749Z,1.00
2022-10-04T08:54:03.987Z,1.10
2022-10-04T08:56:57.886Z,1.30
2022-10-04T09:00:00.242Z,1.10
2022-10-04T09:03:00.012Z,0.80
2022-10-04T09:05:51.250Z,1.70
2022-10-04T09:09:05.526Z,1.30
2022-10-04T09:12:03.730Z,1.20
2022-10-04T09:14:52.343Z,1.60
2022-10-04T09:17:28.897Z,1.00
2022-10-04T09:20:37.880Z,1.70
2022-10-04T09:23:34.290Z,2.00
2022-10-04T09:26:21.243Z,2.40
2022-10-04T09:29:28.016Z,1.70
2022-10-04T09:32:26.717Z,1.30
2022-10-04T09:35:24.348Z,1.00
2022-10-04T09:38:29.442Z,1.10
2022-10-04T09:41:44.188Z,1.30
2022-10-04T09:44:54.889Z,1.30
2022-10-04T09:47:37.934Z,1.60
2022-10-04T09:50:50.051Z,1.10
2022-10-04T09:53:36.574Z,1.20
2022-10-04T09:56:39.617Z,0.90
2022-10-04T09:59:27.128Z,1.10
2022-10-04T10:02:35.040Z,1.00
2022-10-04T10:05:27.330Z,3.70
2022-10-04T10:08:09.310Z,2.30
2022-10-04T10:11:05.475Z,1.50
2022-10-04T10:14:04.626Z,25.10
2022-10-04T10:16:49.889Z,26.50
2022-10-04T10:19:49.309Z,4.10
2022-10-04T10:22:39.102Z,5.50
2022-10-04T10:25:22.810Z,61.40
2022-10-04T10:28:15.320Z,7.40
2022-10-04T10:31:05.749Z,3.50
2022-10-04T10:34:13.187Z,1.80
2022-10-04T10:37:00.613Z,1.60
2022-10-04T10:40:16.968Z,6.10
2022-10-04T10:43:21.337Z,2.80
2022-10-04T10:46:08.707Z,1.50
2022-10-04T10:48:58.943Z,1.30
2022-10-04T10:51:56.098Z,2.30
2022-10-04T10:54:57.977Z,0.90
2022-10-04T10:57:50.468Z,1.40
2022-10-04T11:00:25.652Z,1.20
2022-10-04T11:03:31.129Z,0.80
2022-10-04T11:06:17.689Z,1.00
2022-10-04T11:09:27.360Z,1.10
2022-10-04T11:12:29.599Z,1.10
2022-10-04T11:15:35.003Z,1.00
2022-10-04T11:18:41.026Z,0.70
2022-10-04T11:21:55.776Z,0.90
2022-10-04T11:25:05.198Z,1.40
2022-10-04T11:27:49.543Z,1.40
2022-10-04T11:30:26.503Z,1.10
2022-10-04T11:33:29.436Z,2.20
2022-10-04T11:36:28.227Z,1.00
2022-10-04T11:39:35.570Z,1.10
2022-10-04T11:42:20.393Z,0.90
2022-10-04T11:45:06.529Z,1.40
2022-10-04T11:47:56.710Z,4.90
2022-10-04T11:50:42.353Z,4.60
2022-10-04T11:53:55.764Z,2.20
2022-10-04T11:56:56.720Z,1.40
2022-10-04T11:59:43.749Z,1.70
2022-10-04T12:02:56.622Z,1.40
2022-10-04T12:06:01.867Z,0.80
2022-10-04T12:08:48.962Z,1.40
2022-10-04T12:12:14.472Z,1.10
2022-10-04T12:15:05.588Z,1.20
2022-10-04T12:18:33.177Z,1.80
2022-10-04T12:21:30.688Z,1.20
2022-10-04T12:24:16.009Z,1.40
2022-10-04T12:27:14.487Z,1.30
2022-10-04T12:30:27.643Z,0.80
2022-10-04T12:33:12.431Z,0.90
2022-10-04T12:36:06.749Z,0.70
2022-10-04T12:39:00.856Z,0.80
2022-10-04T12:41:46.047Z,0.80
2022-10-04T12:44:32.162Z,2.60
2022-10-04T12:47:28.086Z,1.80
2022-10-04T12:50:12.958Z,2.60
2022-10-04T12:52:54.168Z,2.00
2022-10-04T12:55:53.160Z,1.80
2022-10-04T12:58:33.228Z,3.40
2022-10-04T13:01:23.603Z,5.50
2022-10-04T13:04:23.319Z,5.00
2022-10-04T13:07:10.574Z,3.60
2022-10-04T13:10:19.315Z,2.10
2022-10-04T13:13:14.469Z,2.10
2022-10-04T13:18:59.273Z,1.20
2022-10-04T13:22:03.076Z,2.40
2022-10-04T13:24:56.237Z,3.70
2022-10-04T13:27:50.271Z,2.80
2022-10-04T13:30:27.922Z,1.90
2022-10-04T13:33:12.435Z,1.40
2022-10-04T13:35:52.799Z,1.20
2022-10-04T13:38:54.490Z,1.50
2022-10-04T13:41:43.212Z,0.80
2022-10-04T13:44:42.211Z,1.00
2022-10-04T13:47:29.553Z,1.00
2022-10-04T13:50:22.180Z,1.40
2022-10-04T13:53:20.284Z,0.70
2022-10-04T13:56:19.166Z,0.80
2022-10-04T13:59:02.185Z,0.60
2022-10-04T14:02:14.149Z,0.60
2022-10-04T14:05:24.647Z,0.80
2022-10-04T14:08:16.080Z,0.50
2022-10-04T14:11:06.889Z,0.80
2022-10-04T14:14:10.337Z,1.10
2022-10-04T14:17:05.295Z,0.60
2022-10-04T14:20:12.095Z,1.40
2022-10-04T14:23:01.833Z,0.60
2022-10-04T14:25:56.163Z,0.70
2022-10-04T14:29:17.889Z,0.70
2022-10-04T14:32:21.162Z,0.50
2022-10-04T14:35:10.385Z,0.60
2022-10-04T14:38:23.286Z,0.90
2022-10-04T14:41:45.650Z,0.90
2022-10-04T14:44:32.759Z,1.50
2022-10-04T14:47:20.325Z,0.90
2022-10-04T14:50:09.683Z,0.80
2022-10-04T14:52:53.808Z,1.30
2022-10-04T14:55:52.681Z,1.10
2022-10-04T14:58:36.636Z,0.80
2022-10-04T15:01:21.529Z,0.70
2022-10-04T15:04:15.134Z,1.30
2022-10-04T15:06:50.808Z,1.00
2022-10-04T15:09:48.533Z,0.80
2022-10-04T15:13:12.633Z,1.30
2022-10-04T15:16:11.439Z,0.80
2022-10-04T15:18:55.831Z,0.70
2022-10-04T15:21:43.725Z,1.10
2022-10-04T15:24:28.038Z,1.00
2022-10-04T15:27:39.751Z,1.00
2022-10-04T15:30:23.130Z,1.30
2022-10-04T15:33:18.090Z,1.30
2022-10-04T15:36:15.890Z,1.60
2022-10-04T15:38:57.485Z,1.90
2022-10-04T15:41:38.338Z,2.10
2022-10-04T15:44:47.420Z,2.80
2022-10-04T15:47:27.204Z,2.00
2022-10-04T15:50:26.173Z,3.30
2022-10-04T15:53:27.469Z,2.30
2022-10-04T15:56:27.325Z,3.70
2022-10-04T15:59:24.005Z,3.30
2022-10-04T16:02:19.976Z,2.10
2022-10-04T16:05:04.653Z,2.40
2022-10-04T16:08:09.856Z,1.90
2022-10-04T16:11:01.620Z,2.40
2022-10-04T16:14:04.866Z,8.60
2022-10-04T16:17:13.844Z,6.80
2022-10-04T16:20:23.178Z,10.20
2022-10-04T16:23:40.190Z,14.00
2022-10-04T16:26:16.061Z,10.80
2022-10-04T16:29:22.201Z,7.30
2022-10-04T16:32:03.295Z,8.60
2022-10-04T16:34:48.168Z,12.10
2022-10-04T16:37:32.027Z,10.00
2022-10-04T16:40:17.082Z,6.50
2022-10-04T16:42:57.409Z,5.90
2022-10-04T16:45:39.696Z,6.00
2022-10-04T16:48:27.273Z,6.90
2022-10-04T16:51:27.430Z,7.60
2022-10-04T16:54:10.616Z,6.10
2022-10-04T16:57:22.631Z,11.20
2022-10-04T16:59:57.718Z,41.80
2022-10-04T17:03:10.332Z,54.40
2022-10-04T17:05:57.692Z,43.00
2022-10-04T17:08:50.821Z,38.30
2022-10-04T17:11:46.728Z,26.60
2022-10-04T17:14:49.657Z,22.90
2022-10-04T17:17:34.579Z,15.90
2022-10-04T17:20:17.259Z,10.30
2022-10-04T17:23:03.745Z,6.70
2022-10-04T17:25:45.679Z,6.50
2022-10-04T17:28:30.806Z,6.10
2022-10-04T17:31:18.403Z,14.00
2022-10-04T17:33:59.809Z,25.10
2022-10-04T17:36:42.150Z,34.00
2022-10-04T17:39:45.910Z,31.20
2022-10-04T17:42:34.991Z,26.30
2022-10-04T17:45:34.007Z,19.10
2022-10-04T17:48:27.378Z,11.10
2022-10-04T17:51:22.830Z,6.60
2022-10-04T17:54:19.167Z,7.00
2022-10-04T17:57:09.064Z,6.10
2022-10-04T17:59:45.185Z,6.30
2022-10-04T18:02:25.284Z,6.00
2022-10-04T18:05:01.650Z,6.50
2022-10-04T18:07:42.882Z,9.10
2022-10-04T18:10:24.889Z,12.10
2022-10-04T18:13:03.677Z,16.90
2022-10-04T18:15:43.804Z,15.40
2022-10-04T18:18:21.751Z,17.10
2022-10-04T18:21:08.576Z,15.50
2022-10-04T18:23:52.428Z,10.90
2022-10-04T18:26:26.107Z,9.30
2022-10-04T18:29:00.199Z,11.80
2022-10-04T18:31:39.677Z,10.90
2022-10-04T18:34:28.007Z,8.90
2022-10-04T18:37:20.794Z,8.40
2022-10-04T18:39:55.628Z,7.30
2022-10-04T18:42:32.240Z,7.70
2022-10-04T18:45:19.718Z,8.10
2022-10-04T18:47:53.049Z,7.90
2022-10-04T18:50:35.462Z,6.30
2022-10-04T18:53:38.331Z,6.50
2022-10-04T18:56:11.788Z,8.40
2022-10-04T18:59:15.773Z,7.50
2022-10-04T19:02:03.404Z,7.00
2022-10-04T19:04:45.519Z,6.90
2022-10-04T19:07:21.510Z,7.60
2022-10-04T19:10:20.514Z,6.80
2022-10-04T19:13:05.035Z,7.00
2022-10-04T19:16:04.720Z,6.00
2022-10-04T19:18:51.974Z,7.50
2022-10-04T19:21:32.271Z,6.70
2022-10-04T19:24:28.254Z,6.90
2022-10-04T19:27:04.196Z,7.70
2022-10-04T19:29:52.909Z,7.50
2022-10-04T19:32:37.261Z,8.10
2022-10-04T19:35:23.909Z,7.80
2022-10-04T19:38:04.873Z,7.80
2022-10-04T19:40:48.633Z,8.90
2022-10-04T19:43:31.939Z,8.20
2022-10-04T19:46:15.479Z,8.40
2022-10-04T19:48:52.465Z,7.60
2022-10-04T19:51:31.865Z,8.50
2022-10-04T19:54:15.292Z,8.60
2022-10-04T19:56:49.865Z,8.10
2022-10-04T19:59:28.520Z,7.60
2022-10-04T20:02:00.482Z,9.10
2022-10-04T20:04:38.062Z,9.70
2022-10-04T20:07:22.600Z,9.50
2022-10-04T20:09:57.802Z,9.10
2022-10-04T20:12:39.544Z,9.60
2022-10-04T20:15:45.301Z,9.80
2022-10-04T20:18:59.573Z,9.70
2022-10-04T20:21:32.975Z,9.10
2022-10-04T20:24:05.246Z,9.30
2022-10-04T20:26:56.707Z,10.20
2022-10-04T20:30:01.782Z,10.10
2022-10-04T20:32:59.019Z,9.80
2022-10-04T20:36:09.150Z,9.80
2022-10-04T20:38:49.854Z,10.30
2022-10-04T20:42:22.692Z,9.30
2022-10-04T20:44:57.435Z,8.90
2022-10-04T20:47:42.614Z,10.30
2022-10-04T20:50:21.351Z,10.10
2022-10-04T20:52:57.245Z,11.00
2022-10-04T20:55:31.207Z,10.70
2022-10-04T20:58:05.070Z,11.60
2022-10-04T21:00:51.256Z,13.10
2022-10-04T21:03:24.033Z,14.10
2022-10-04T21:06:08.460Z,14.80
2022-10-04T21:08:41.119Z,13.70
2022-10-04T21:11:23.872Z,15.70
2022-10-04T21:14:00.629Z,16.20
2022-10-04T21:16:48.552Z,15.90
2022-10-04T21:19:46.127Z,16.00
2022-10-04T21:22:39.589Z,16.50
2022-10-04T21:25:33.400Z,17.70
2022-10-04T21:28:38.906Z,15.30
2022-10-04T21:31:10.846Z,16.10
2022-10-04T21:33:42.798Z,16.60
2022-10-04T21:36:14.716Z,17.90
2022-10-04T21:38:46.493Z,17.00
2022-10-04T21:41:18.583Z,17.40
2022-10-04T21:43:50.442Z,17.20
2022-10-04T21:46:22.611Z,17.60
2022-10-04T21:48:54.675Z,15.80
2022-10-04T21:51:26.635Z,18.00
2022-10-04T21:53:58.421Z,17.20
2022-10-04T21:56:30.435Z,15.40
2022-10-04T21:59:02.190Z,14.70
2022-10-04T22:01:34.503Z,13.70
2022-10-04T22:04:06.547Z,13.10
2022-10-04T22:06:38.407Z,12.80
2022-10-04T22:09:10.780Z,13.30
2022-10-04T22:11:42.862Z,11.90
2022-10-04T22:14:14.908Z,10.80
2022-10-04T22:16:47.038Z,10.20
2022-10-04T22:19:19.049Z,9.40
2022-10-04T22:21:50.871Z,8.60
2022-10-04T22:24:23.229Z,8.30
2022-10-04T22:26:55.055Z,8.40
2022-10-04T22:29:27.329Z,7.70
2022-10-04T22:31:59.804Z,7.60
2022-10-04T22:34:33.963Z,7.60
2022-10-04T22:37:07.103Z,7.40
2022-10-04T22:39:38.995Z,7.50
2022-10-04T22:42:15.383Z,6.60
2022-10-04T22:44:47.501Z,7.00
2022-10-04T22:47:19.362Z,6.70
2022-10-04T22:49:53.770Z,6.50
2022-10-04T22:52:26.871Z,6.80
2022-10-04T22:55:04.728Z,6.30
2022-10-04T22:57:36.510Z,6.50
2022-10-04T23:00:13.633Z,6.80
2022-10-04T23:02:45.672Z,6.40
2022-10-04T23:05:19.588Z,6.90
2022-10-04T23:07:51.945Z,7.00
2022-10-04T23:10:23.777Z,6.90
2022-10-04T23:12:55.622Z,7.60
2022-10-04T23:15:27.584Z,6.70
2022-10-04T23:17:59.429Z,6.50
2022-10-04T23:20:31.740Z,7.50
2022-10-04T23:23:03.732Z,6.90
2022-10-04T23:25:35.567Z,7.30
2022-10-04T23:28:15.368Z,7.20
2022-10-04T23:30:51.079Z,7.30
2022-10-04T23:33:24.862Z,8.50
2022-10-04T23:35:57.657Z,7.20
2022-10-04T23:38:31.548Z,6.80
2022-10-04T23:41:03.447Z,6.90
2022-10-04T23:43:35.513Z,6.80
2022-10-04T23:46:17.251Z,6.30
2022-10-04T23:48:50.408Z,6.80
2022-10-04T23:51:22.646Z,7.30
2022-10-04T23:53:54.582Z,8.30
2022-10-04T23:56:29.370Z,8.20
2022-10-04T23:59:01.770Z,7.90
